createdAt,value
2023-02-02T00:29:56.769Z,1011.68
2023-02-02T00:30:37.295Z,1011.71
2023-02-02T00:31:17.840Z,1011.72
2023-02-02T00:31:58.268Z,1011.77
2023-02-02T00:32:38.785Z,1011.67
2023-02-02T00:33:19.208Z,1011.74
2023-02-02T00:33:59.697Z,1011.63
2023-02-02T00:34:40.243Z,1011.68
2023-02-02T00:35:20.869Z,1011.65
2023-02-02T00:36:01.334Z,1011.8
2023-02-02T00:36:41.804Z,1011.77
2023-02-02T00:37:22.307Z,1011.74
2023-02-02T00:38:02.829Z,1011.69
2023-02-02T00:38:43.318Z,1011.68
2023-02-02T00:39:23.863Z,1011.73
2023-02-02T00:40:04.319Z,1011.67
2023-02-02T00:40:44.823Z,1011.69
2023-02-02T00:41:25.310Z,1011.78
2023-02-02T00:42:05.796Z,1011.78
2023-02-02T00:42:46.357Z,1011.79
2023-02-02T00:43:26.858Z,1011.76
2023-02-02T00:44:07.381Z,1011.82
2023-02-02T00:44:47.826Z,1011.71
2023-02-02T00:45:28.427Z,1011.74
2023-02-02T00:46:08.902Z,1011.7
2023-02-02T00:46:49.365Z,1011.65
2023-02-02T00:47:29.860Z,1011.68
2023-02-02T00:48:10.347Z,1011.68
2023-02-02T00:48:50.845Z,1011.7
2023-02-02T00:49:31.314Z,1011.69
2023-02-02T00:50:11.873Z,1011.65
2023-02-02T00:50:52.330Z,1011.65
2023-02-02T00:51:32.809Z,1011.65
2023-02-02T00:52:13.290Z,1011.69
2023-02-02T00:52:53.785Z,1011.77
2023-02-02T00:53:35.052Z,1011.72
2023-02-02T00:54:15.542Z,1011.67
2023-02-02T00:54:56.013Z,1011.63
2023-02-02T00:55:36.515Z,1011.61
2023-02-02T00:56:17.020Z,1011.54
2023-02-02T00:56:57.540Z,1011.59
2023-02-02T00:57:38.013Z,1011.59
2023-02-02T00:58:18.495Z,1011.73
2023-02-02T00:58:58.974Z,1011.62
2023-02-02T00:59:39.513Z,1011.65
2023-02-02T01:00:20.015Z,1011.61
2023-02-02T01:01:00.609Z,1011.7
2023-02-02T01:01:40.981Z,1011.61
2023-02-02T01:02:21.487Z,1011.66
2023-02-02T01:03:01.930Z,1011.61
2023-02-02T01:03:42.420Z,1011.7
2023-02-02T01:04:22.940Z,1011.77
2023-02-02T01:05:03.433Z,1011.6
2023-02-02T01:05:43.933Z,1011.67
2023-02-02T01:06:24.507Z,1011.64
2023-02-02T01:07:04.925Z,1011.67
2023-02-02T01:07:45.414Z,1011.67
2023-02-02T01:08:25.908Z,1011.61
2023-02-02T01:09:06.469Z,1011.58
2023-02-02T01:09:46.894Z,1011.68
2023-02-02T01:10:27.398Z,1011.72
2023-02-02T01:11:07.909Z,1011.69
2023-02-02T01:11:48.378Z,1011.62
2023-02-02T01:12:28.864Z,1011.69
2023-02-02T01:13:09.394Z,1011.65
2023-02-02T01:13:49.849Z,1011.72
2023-02-02T01:14:30.353Z,1011.59
2023-02-02T01:15:10.832Z,1011.69
2023-02-02T01:15:51.291Z,1011.77
2023-02-02T01:16:31.931Z,1011.74
2023-02-02T01:17:12.283Z,1011.55
2023-02-02T01:17:52.811Z,1011.74
2023-02-02T01:18:33.264Z,1011.72
2023-02-02T01:19:13.757Z,1011.75
2023-02-02T01:19:54.318Z,1011.76
2023-02-02T01:20:34.758Z,1011.81
2023-02-02T01:21:15.275Z,1011.71
2023-02-02T01:21:55.742Z,1011.73
2023-02-02T01:22:36.218Z,1011.72
2023-02-02T01:23:16.729Z,1011.77
2023-02-02T01:23:57.221Z,1011.67
2023-02-02T01:24:37.705Z,1011.76
2023-02-02T01:25:18.181Z,1011.83
2023-02-02T01:25:58.701Z,1011.77
2023-02-02T01:26:39.249Z,1011.83
2023-02-02T01:27:19.655Z,1011.81
2023-02-02T01:28:00.192Z,1011.88
2023-02-02T01:28:40.713Z,1011.87
2023-02-02T01:29:21.215Z,1011.82
2023-02-02T01:30:01.685Z,1011.84
2023-02-02T01:30:42.247Z,1011.71
2023-02-02T01:31:23.875Z,1011.81
2023-02-02T01:32:03.370Z,1011.77
2023-02-02T01:32:43.781Z,1011.83
2023-02-02T01:33:24.348Z,1011.89
2023-02-02T01:34:04.784Z,1011.89
2023-02-02T01:34:45.275Z,1011.94
2023-02-02T01:35:26.042Z,1011.92
2023-02-02T01:36:06.256Z,1012.03
2023-02-02T01:36:46.790Z,1012
2023-02-02T01:37:27.273Z,1011.99
2023-02-02T01:38:07.742Z,1012.04
2023-02-02T01:38:48.280Z,1012.04
2023-02-02T01:39:28.782Z,1012.03
2023-02-02T01:40:09.287Z,1012.03
2023-02-02T01:40:49.819Z,1011.95
2023-02-02T01:41:30.346Z,1011.92
2023-02-02T01:42:10.867Z,1011.99
2023-02-02T01:42:51.335Z,1011.99
2023-02-02T01:43:31.824Z,1011.99
2023-02-02T01:44:12.374Z,1011.99
2023-02-02T01:44:52.857Z,1011.98
2023-02-02T01:45:33.378Z,1011.88
2023-02-02T01:46:13.994Z,1011.92
2023-02-02T01:46:54.437Z,1011.93
2023-02-02T01:47:34.934Z,1012.01
2023-02-02T01:48:15.370Z,1012.02
2023-02-02T01:48:55.899Z,1012.02
2023-02-02T01:49:36.395Z,1012
2023-02-02T01:50:16.878Z,1012.03
2023-02-02T01:50:57.373Z,1012
2023-02-02T01:51:37.918Z,1012.02
2023-02-02T01:52:18.434Z,1011.94
2023-02-02T01:52:59.019Z,1011.97
2023-02-02T01:56:13.600Z,1012.01
2023-02-02T01:56:54.101Z,1012.11
2023-02-02T01:57:34.568Z,1012.08
2023-02-02T01:58:15.062Z,1012.05
2023-02-02T01:58:55.575Z,1012.1
2023-02-02T01:59:36.084Z,1011.91
2023-02-02T02:00:16.639Z,1012.02
2023-02-02T02:00:57.125Z,1012.14
2023-02-02T02:01:37.643Z,1012.1
2023-02-02T02:02:18.090Z,1012.18
2023-02-02T02:02:58.545Z,1012.09
2023-02-02T02:03:39.014Z,1012.17
2023-02-02T02:04:19.549Z,1012.07
2023-02-02T02:05:00.106Z,1011.99
2023-02-02T02:05:40.550Z,1011.85
2023-02-02T02:06:21.190Z,1012.03
2023-02-02T02:07:01.565Z,1012.01
2023-02-02T02:07:42.036Z,1012.12
2023-02-02T02:08:22.564Z,1011.92
2023-02-02T02:09:03.025Z,1012.11
2023-02-02T02:09:43.482Z,1012.11
2023-02-02T02:10:23.966Z,1012.09
2023-02-02T02:11:04.471Z,1012.07
2023-02-02T02:11:44.983Z,1012.04
2023-02-02T02:12:25.470Z,1012.01
2023-02-02T02:13:05.940Z,1012
2023-02-02T02:13:46.460Z,1012.08
2023-02-02T02:14:26.929Z,1011.92
2023-02-02T02:15:07.433Z,1012.04
2023-02-02T02:15:47.934Z,1012.04
2023-02-02T02:16:28.472Z,1012.04
2023-02-02T02:17:08.928Z,1012
2023-02-02T02:17:49.405Z,1012.06
2023-02-02T02:18:29.944Z,1012.02
2023-02-02T02:19:10.402Z,1011.99
2023-02-02T02:19:50.912Z,1012.02
2023-02-02T02:20:31.383Z,1012
2023-02-02T02:21:11.866Z,1012.04
2023-02-02T02:21:52.411Z,1011.93
2023-02-02T02:22:32.827Z,1012.03
2023-02-02T02:23:13.330Z,1011.95
2023-02-02T02:23:53.802Z,1011.95
2023-02-02T02:24:34.302Z,1011.99
2023-02-02T02:25:14.816Z,1011.98
2023-02-02T02:25:55.265Z,1012.04
2023-02-02T02:26:35.791Z,1011.98
2023-02-02T02:27:16.236Z,1011.98
2023-02-02T02:27:56.716Z,1011.99
2023-02-02T02:28:37.212Z,1011.87
2023-02-02T02:29:17.657Z,1011.99
2023-02-02T02:29:58.163Z,1011.94
2023-02-02T02:30:38.732Z,1011.93
2023-02-02T02:31:19.188Z,1011.95
2023-02-02T02:31:59.608Z,1012
2023-02-02T02:32:40.095Z,1011.9
2023-02-02T02:33:20.593Z,1011.93
2023-02-02T02:34:01.165Z,1011.9
2023-02-02T02:34:41.621Z,1011.91
2023-02-02T02:35:22.347Z,1011.85
2023-02-02T02:36:02.638Z,1011.83
2023-02-02T02:36:43.130Z,1011.86
2023-02-02T02:37:23.629Z,1011.84
2023-02-02T02:38:04.136Z,1011.87
2023-02-02T02:38:44.649Z,1011.83
2023-02-02T02:40:05.590Z,1011.82
2023-02-02T02:40:46.095Z,1011.83
2023-02-02T02:41:26.600Z,1011.75
2023-02-02T02:42:07.065Z,1011.84
2023-02-02T02:42:47.537Z,1011.76
2023-02-02T02:43:28.066Z,1011.82
2023-02-02T02:44:08.564Z,1011.65
2023-02-02T02:44:49.103Z,1011.81
2023-02-02T02:45:29.592Z,1011.84
2023-02-02T02:46:10.088Z,1011.87
2023-02-02T02:46:50.594Z,1011.73
2023-02-02T02:47:31.079Z,1011.81
2023-02-02T02:48:11.622Z,1011.82
2023-02-02T02:48:52.070Z,1011.85
2023-02-02T02:50:13.027Z,1011.85
2023-02-02T02:50:53.510Z,1011.97
2023-02-02T02:51:33.997Z,1011.89
2023-02-02T02:52:14.530Z,1011.81
2023-02-02T02:52:55.014Z,1011.99
2023-02-02T02:53:35.540Z,1011.87
2023-02-02T02:54:15.984Z,1011.94
2023-02-02T02:54:56.497Z,1011.95
2023-02-02T02:55:37.657Z,1011.85
2023-02-02T02:56:17.485Z,1012.02
2023-02-02T02:56:57.975Z,1012.02
2023-02-02T02:57:38.478Z,1011.99
2023-02-02T02:58:18.979Z,1012.02
2023-02-02T02:58:59.527Z,1011.93
2023-02-02T02:59:39.938Z,1011.82
2023-02-02T03:00:20.424Z,1011.96
2023-02-02T03:01:00.922Z,1011.95
2023-02-02T03:01:41.507Z,1011.97
2023-02-02T03:02:21.941Z,1011.99
2023-02-02T03:03:02.452Z,1012
2023-02-02T03:03:42.926Z,1011.96
2023-02-02T03:04:23.437Z,1012.03
2023-02-02T03:05:45.156Z,1011.98
2023-02-02T03:06:24.931Z,1011.95
2023-02-02T03:07:05.421Z,1012.02
2023-02-02T03:07:45.867Z,1011.98
2023-02-02T03:08:26.372Z,1012
2023-02-02T03:09:06.860Z,1012.03
2023-02-02T03:09:47.417Z,1011.8
2023-02-02T03:10:27.977Z,1012.05
2023-02-02T03:11:08.443Z,1012.01
2023-02-02T03:11:48.935Z,1012.03
2023-02-02T03:12:29.425Z,1012
2023-02-02T03:13:09.909Z,1012.05
2023-02-02T03:13:51.357Z,1012.06
2023-02-02T03:14:31.823Z,1011.97
2023-02-02T03:15:12.328Z,1012.09
2023-02-02T03:15:52.896Z,1012.09
2023-02-02T03:16:33.358Z,1012.13
2023-02-02T03:17:13.878Z,1012.03
2023-02-02T03:17:54.383Z,1012.11
2023-02-02T03:18:34.874Z,1011.82
2023-02-02T03:19:15.415Z,1011.98
2023-02-02T03:19:55.911Z,1012.1
2023-02-02T03:20:36.434Z,1012.03
2023-02-02T03:21:16.926Z,1012.02
2023-02-02T03:21:57.439Z,1012.11
2023-02-02T03:22:37.932Z,1011.91
2023-02-02T03:23:18.406Z,1012.04
2023-02-02T03:23:58.881Z,1012.01
2023-02-02T03:24:39.354Z,1012
2023-02-02T03:25:19.841Z,1012.06
2023-02-02T03:26:00.308Z,1011.98
2023-02-02T03:26:40.876Z,1012.05
2023-02-02T03:27:21.284Z,1012
2023-02-02T03:28:01.782Z,1012.06
2023-02-02T03:28:42.306Z,1012.11
2023-02-02T03:29:22.757Z,1011.98
2023-02-02T03:30:03.236Z,1012.05
2023-02-02T03:30:43.759Z,1012.04
2023-02-02T03:31:24.263Z,1011.96
2023-02-02T03:32:04.717Z,1012
2023-02-02T03:33:25.745Z,1011.92
2023-02-02T03:34:06.214Z,1011.86
2023-02-02T03:34:46.680Z,1012.01
2023-02-02T03:35:27.175Z,1012.01
2023-02-02T03:36:07.727Z,1012.04
2023-02-02T03:36:48.173Z,1012.12
2023-02-02T03:37:28.732Z,1012.09
2023-02-02T03:38:09.137Z,1012.14
2023-02-02T03:38:49.630Z,1012.14
2023-02-02T03:39:30.134Z,1012.07
2023-02-02T03:40:10.717Z,1012.1
2023-02-02T03:40:51.168Z,1012.15
2023-02-02T03:41:31.671Z,1012.21
2023-02-02T03:42:12.195Z,1012.22
2023-02-02T03:42:52.632Z,1012.16
2023-02-02T03:43:33.115Z,1012.17
2023-02-02T03:44:13.657Z,1012.27
2023-02-02T03:44:54.169Z,1012.14
2023-02-02T03:45:34.655Z,1012.19
2023-02-02T03:46:15.216Z,1012.26
2023-02-02T03:46:55.648Z,1012.23
2023-02-02T03:47:36.119Z,1012.27
2023-02-02T03:48:16.618Z,1012.23
2023-02-02T03:48:57.164Z,1012.21
2023-02-02T03:49:37.624Z,1012.15
2023-02-02T03:50:58.618Z,1012.26
2023-02-02T03:51:39.114Z,1012.28
2023-02-02T03:52:19.556Z,1012.26
2023-02-02T03:53:00.088Z,1012.28
2023-02-02T03:53:40.565Z,1012.25
2023-02-02T03:54:21.065Z,1012.32
2023-02-02T03:55:01.605Z,1012.23
2023-02-02T03:55:44.756Z,1012.19
2023-02-02T03:56:25.293Z,1012.24
2023-02-02T03:57:05.787Z,1012.27
2023-02-02T03:57:46.267Z,1012.31
2023-02-02T03:58:26.754Z,1012.25
2023-02-02T03:59:07.235Z,1012.25
2023-02-02T03:59:47.763Z,1012.2
2023-02-02T04:01:08.741Z,1012.15
2023-02-02T04:01:49.310Z,1012.22
2023-02-02T04:02:29.768Z,1012.14
2023-02-02T04:03:10.266Z,1012.19
2023-02-02T04:03:50.755Z,1012.24
2023-02-02T04:04:31.274Z,1012.16
2023-02-02T04:05:11.773Z,1012.21
2023-02-02T04:05:52.282Z,1012.21
2023-02-02T04:06:32.802Z,1012.21
2023-02-02T04:07:13.385Z,1012.24
2023-02-02T04:07:53.851Z,1012.2
2023-02-02T04:08:34.381Z,1012.13
2023-02-02T04:09:14.857Z,1012.22
2023-02-02T04:09:55.368Z,1012.2
2023-02-02T04:11:16.386Z,1012.2
2023-02-02T04:11:56.863Z,1012.23
2023-02-02T04:12:37.529Z,1012.25
2023-02-02T04:13:18.031Z,1012.17
2023-02-02T04:13:58.507Z,1012.22
2023-02-02T04:14:39.029Z,1012.15
2023-02-02T04:15:19.506Z,1012.26
2023-02-02T04:16:00.234Z,1012.24
2023-02-02T04:16:40.513Z,1012.17
2023-02-02T04:17:21.684Z,1012.23
2023-02-02T04:18:01.486Z,1012.18
2023-02-02T04:18:41.993Z,1012.15
2023-02-02T04:19:22.473Z,1012.2
2023-02-02T04:20:02.968Z,1012.16
2023-02-02T04:20:43.463Z,1012.25
2023-02-02T04:21:23.976Z,1012.27
2023-02-02T04:22:04.472Z,1012.22
2023-02-02T04:22:45.002Z,1012.22
2023-02-02T04:23:25.455Z,1012.19
2023-02-02T04:24:05.942Z,1012.23
2023-02-02T04:24:46.454Z,1012.26
2023-02-02T04:26:07.496Z,1012.27
2023-02-02T04:26:48.044Z,1012.23
2023-02-02T04:27:28.510Z,1012.29
2023-02-02T04:28:09.008Z,1012.19
2023-02-02T04:28:49.500Z,1012.11
2023-02-02T04:29:30.025Z,1012.24
2023-02-02T04:30:10.525Z,1012.22
2023-02-02T04:30:51.046Z,1012.14
2023-02-02T04:31:31.568Z,1011.9
2023-02-02T04:32:12.023Z,1012.25
2023-02-02T04:32:52.520Z,1012.28
2023-02-02T04:33:33.033Z,1012.18
2023-02-02T04:34:13.491Z,1012.28
2023-02-02T04:34:53.991Z,1012.23
2023-02-02T04:35:34.494Z,1012.28
2023-02-02T04:36:15.013Z,1012.25
2023-02-02T04:36:56.284Z,1012.24
2023-02-02T04:37:36.799Z,1012.22
2023-02-02T04:38:17.321Z,1012.23
2023-02-02T04:38:57.805Z,1012.25
2023-02-02T04:39:38.344Z,1012.27
2023-02-02T04:40:18.818Z,1012.23
2023-02-02T04:40:59.280Z,1012.2
2023-02-02T04:41:39.825Z,1012.26
2023-02-02T04:42:20.311Z,1012.23
2023-02-02T04:43:00.775Z,1012.31
2023-02-02T04:43:41.319Z,1012.32
2023-02-02T04:44:21.762Z,1012.36
2023-02-02T04:45:02.274Z,1012.29
2023-02-02T04:45:43.005Z,1012.23
2023-02-02T04:46:23.309Z,1012.22
2023-02-02T04:47:03.765Z,1012.3
2023-02-02T04:47:45.192Z,1012.36
2023-02-02T04:49:05.317Z,1012.35
2023-02-02T04:49:45.785Z,1012.39
2023-02-02T04:50:27.021Z,1012.4
2023-02-02T04:51:07.531Z,1012.47
2023-02-02T04:51:48.003Z,1012.47
2023-02-02T04:52:28.509Z,1012.41
2023-02-02T04:53:09.020Z,1012.36
2023-02-02T04:53:49.535Z,1012.48
2023-02-02T04:54:30.039Z,1012.43
2023-02-02T04:55:10.530Z,1012.44
2023-02-02T04:56:32.084Z,1012.36
2023-02-02T04:57:12.665Z,1012.45
2023-02-02T04:57:53.134Z,1012.34
2023-02-02T04:58:33.623Z,1012.4
2023-02-02T04:59:14.184Z,1012.38
2023-02-02T04:59:54.657Z,1012.36
2023-02-02T05:00:35.199Z,1012.26
2023-02-02T05:01:15.685Z,1012.06
2023-02-02T05:01:56.194Z,1012.34
2023-02-02T05:02:36.685Z,1012.26
2023-02-02T05:03:17.174Z,1012.27
2023-02-02T05:03:57.701Z,1012.38
2023-02-02T05:04:38.328Z,1012.31
2023-02-02T05:05:18.803Z,1012.4
2023-02-02T05:05:59.291Z,1012.3
2023-02-02T05:06:39.797Z,1012.32
2023-02-02T05:07:20.315Z,1012.28
2023-02-02T05:08:00.800Z,1012.14
2023-02-02T05:08:41.270Z,1012.33
2023-02-02T05:09:21.802Z,1012.26
2023-02-02T05:10:02.294Z,1012.33
2023-02-02T05:10:42.768Z,1012.21
2023-02-02T05:11:23.238Z,1012.32
2023-02-02T05:12:03.716Z,1012.38
2023-02-02T05:12:44.215Z,1012.35
2023-02-02T05:14:05.248Z,1012.16
2023-02-02T05:14:45.762Z,1012.37
2023-02-02T05:15:26.560Z,1012.37
2023-02-02T05:16:07.051Z,1012.43
2023-02-02T05:16:47.715Z,1012.41
2023-02-02T05:17:28.154Z,1012.53
2023-02-02T05:18:08.589Z,1012.4
2023-02-02T05:18:49.659Z,1012.32
2023-02-02T05:19:30.211Z,1012.42
2023-02-02T05:20:10.686Z,1012.36
2023-02-02T05:20:51.185Z,1012.5
2023-02-02T05:21:31.764Z,1012.5
2023-02-02T05:22:12.293Z,1012.54
2023-02-02T05:22:52.763Z,1012.52
2023-02-02T05:23:34.222Z,1012.59
2023-02-02T05:24:14.703Z,1012.45
2023-02-02T05:24:55.353Z,1012.55
2023-02-02T05:25:35.786Z,1012.54
2023-02-02T05:26:16.518Z,1012.66
2023-02-02T05:26:56.916Z,1012.51
2023-02-02T05:27:37.479Z,1012.53
2023-02-02T05:28:17.945Z,1012.57
2023-02-02T05:28:58.473Z,1012.55
2023-02-02T05:29:38.967Z,1012.59
2023-02-02T05:30:19.911Z,1012.58
2023-02-02T05:31:00.516Z,1012.63
2023-02-02T05:31:41.069Z,1012.52
2023-02-02T05:32:21.565Z,1012.58
2023-02-02T05:33:02.080Z,1012.64
2023-02-02T05:33:42.597Z,1012.64
2023-02-02T05:34:23.392Z,1012.5
2023-02-02T05:35:03.731Z,1012.59
2023-02-02T05:35:44.234Z,1012.51
2023-02-02T05:36:24.921Z,1012.49
2023-02-02T05:37:05.438Z,1012.47
2023-02-02T05:37:45.901Z,1012.54
2023-02-02T05:39:06.888Z,1012.48
2023-02-02T05:39:47.427Z,1012.49
2023-02-02T05:40:28.034Z,1012.58
2023-02-02T05:41:08.523Z,1012.43
2023-02-02T05:41:49.103Z,1012.48
2023-02-02T05:42:29.598Z,1012.44
2023-02-02T05:43:11.244Z,1012.42
2023-02-02T05:43:51.736Z,1012.48
2023-02-02T05:44:32.236Z,1012.43
2023-02-02T05:45:12.814Z,1012.51
2023-02-02T05:45:53.338Z,1012.58
2023-02-02T05:46:33.906Z,1012.53
2023-02-02T05:47:14.324Z,1012.47
2023-02-02T05:47:54.853Z,1012.44
2023-02-02T05:48:35.384Z,1012.34
2023-02-02T05:49:15.895Z,1012.45
2023-02-02T05:49:56.393Z,1012.43
2023-02-02T05:50:36.916Z,1012.38
2023-02-02T05:51:17.447Z,1012.51
2023-02-02T05:51:57.949Z,1012.44
2023-02-02T06:30:25.948Z,1012.67
2023-02-02T06:31:06.677Z,1012.61
2023-02-02T06:31:47.110Z,1012.61
2023-02-02T06:32:27.571Z,1012.7
2023-02-02T06:33:08.077Z,1012.67
2023-02-02T06:33:48.605Z,1012.71
2023-02-02T06:34:29.171Z,1012.6
2023-02-02T06:35:09.675Z,1012.62
2023-02-02T06:35:50.221Z,1012.77
2023-02-02T06:36:30.748Z,1012.76
2023-02-02T06:37:11.255Z,1012.74
2023-02-02T06:37:51.743Z,1012.73
2023-02-02T06:38:32.246Z,1012.76
2023-02-02T06:39:12.753Z,1012.78
2023-02-02T06:39:53.280Z,1012.85
2023-02-02T06:40:33.795Z,1012.85
2023-02-02T06:41:14.325Z,1012.74
2023-02-02T06:42:35.492Z,1012.72
2023-02-02T06:43:16.055Z,1012.75
2023-02-02T06:43:56.665Z,1012.73
2023-02-02T06:44:37.144Z,1012.75
2023-02-02T06:45:17.690Z,1012.81
2023-02-02T06:45:58.302Z,1012.73
2023-02-02T06:46:38.715Z,1012.76
2023-02-02T06:47:19.188Z,1012.79
2023-02-02T06:47:59.694Z,1012.87
2023-02-02T06:48:40.199Z,1012.98
2023-02-02T06:49:20.725Z,1012.85
2023-02-02T06:50:01.269Z,1012.84
2023-02-02T06:50:41.905Z,1012.9
2023-02-02T06:51:22.497Z,1012.73
2023-02-02T06:52:02.979Z,1012.75
2023-02-02T06:52:43.550Z,1012.91
2023-02-02T06:53:24.047Z,1012.93
2023-02-02T06:54:06.735Z,1012.94
2023-02-02T06:54:47.287Z,1012.99
2023-02-02T06:58:01.310Z,1013.02
2023-02-02T06:58:42.153Z,1013.07
2023-02-02T06:59:22.892Z,1013.02
2023-02-02T07:00:04.322Z,1013.04
2023-02-02T07:00:45.601Z,1013.09
2023-02-02T07:01:25.751Z,1012.94
2023-02-02T07:02:06.221Z,1013.04
2023-02-02T07:02:47.109Z,1013.06
2023-02-02T07:03:27.950Z,1012.99
2023-02-02T07:04:08.815Z,1013.01
2023-02-02T07:04:49.331Z,1013
2023-02-02T07:05:30.769Z,1013.04
2023-02-02T07:06:10.563Z,1012.99
2023-02-02T07:06:51.235Z,1013.03
2023-02-02T07:07:31.758Z,1013.04
2023-02-02T07:08:13.099Z,1013.01
2023-02-02T07:08:57.709Z,1012.96
2023-02-02T07:12:22.278Z,1013.01
2023-02-02T07:13:02.800Z,1012.98
2023-02-02T07:13:43.377Z,1013
2023-02-02T07:14:23.941Z,1013.03
2023-02-02T07:15:04.442Z,1012.95
2023-02-02T07:15:44.984Z,1012.89
2023-02-02T07:16:25.484Z,1012.86
2023-02-02T07:17:46.645Z,1012.94
2023-02-02T07:18:27.240Z,1012.84
2023-02-02T07:19:07.692Z,1012.99
2023-02-02T07:19:48.295Z,1013.06
2023-02-02T07:20:28.943Z,1013.05
2023-02-02T07:21:09.478Z,1013.03
2023-02-02T07:21:50.158Z,1013
2023-02-02T07:22:30.597Z,1013.01
2023-02-02T07:23:11.050Z,1012.89
2023-02-02T07:23:51.628Z,1013.02
2023-02-02T07:24:32.140Z,1013.05
2023-02-02T07:25:12.720Z,1013.03
2023-02-02T07:25:53.398Z,1013.12
2023-02-02T07:26:34.009Z,1012.9
2023-02-02T07:27:14.532Z,1013.11
2023-02-02T07:27:55.029Z,1013.11
2023-02-02T07:28:35.645Z,1012.98
2023-02-02T07:29:16.209Z,1013.02
2023-02-02T07:29:56.737Z,1013.16
2023-02-02T07:30:37.254Z,1013.08
2023-02-02T07:31:17.818Z,1013.05
2023-02-02T07:31:58.338Z,1013.18
2023-02-02T07:32:38.918Z,1013.07
2023-02-02T07:33:19.418Z,1013.11
2023-02-02T07:33:59.945Z,1012.99
2023-02-02T07:34:40.550Z,1013.09
2023-02-02T07:35:21.305Z,1013.1
2023-02-02T07:36:01.809Z,1013.13
2023-02-02T07:36:42.352Z,1013.12
2023-02-02T07:37:22.873Z,1013.15
2023-02-02T07:38:04.201Z,1013.01
2023-02-02T07:38:44.767Z,1013.13
2023-02-02T07:39:25.236Z,1013.07
2023-02-02T07:40:05.799Z,1013.15
2023-02-02T07:40:46.287Z,1013.2
2023-02-02T07:41:26.870Z,1012.92
2023-02-02T07:42:07.439Z,1013.08
2023-02-02T07:42:48.031Z,1013.14
2023-02-02T07:43:28.548Z,1013.15
2023-02-02T07:44:09.074Z,1013.17
2023-02-02T07:44:49.629Z,1013.16
2023-02-02T07:45:30.239Z,1013.21
2023-02-02T07:46:10.836Z,1013.16
2023-02-02T07:46:51.382Z,1013.19
2023-02-02T07:47:31.909Z,1012.83
2023-02-02T07:48:12.500Z,1013.18
2023-02-02T07:48:52.998Z,1013.23
2023-02-02T07:49:33.520Z,1013.17
2023-02-02T07:50:14.020Z,1013.17
2023-02-02T07:50:54.614Z,1013.23
2023-02-02T07:51:37.337Z,1013.2
2023-02-02T07:52:15.669Z,1013.15
2023-02-02T07:52:56.244Z,1013.21
2023-02-02T07:53:36.758Z,1012.94
2023-02-02T07:54:17.222Z,1013.29
2023-02-02T07:55:09.026Z,1013.09
2023-02-02T07:55:38.320Z,1013.25
2023-02-02T07:56:22.884Z,1013.21
2023-02-02T07:57:09.515Z,1013.11
2023-02-02T07:57:50.018Z,1013.29
2023-02-02T07:58:32.142Z,1013.2
2023-02-02T07:59:13.593Z,1013.12
2023-02-02T08:00:34.726Z,1013.18
2023-02-02T08:01:15.833Z,1013.11
2023-02-02T08:01:56.521Z,1013.23
2023-02-02T08:02:36.990Z,1013.02
2023-02-02T08:03:17.677Z,1013.24
2023-02-02T08:03:58.329Z,1013.01
2023-02-02T08:04:38.986Z,1013.15
2023-02-02T08:06:37.243Z,1013.19
2023-02-02T08:07:18.128Z,1013.18
2023-02-02T08:07:58.805Z,1013.22
2023-02-02T08:08:39.428Z,1012.93
2023-02-02T08:09:19.990Z,1013.2
2023-02-02T08:10:00.577Z,1013.11
2023-02-02T08:10:41.113Z,1013.06
2023-02-02T08:11:21.642Z,1013.12
2023-02-02T08:12:02.221Z,1013.19
2023-02-02T08:12:42.903Z,1013.13
2023-02-02T08:13:23.548Z,1013.17
2023-02-02T08:14:04.018Z,1013.19
2023-02-02T08:14:44.561Z,1013.08
2023-02-02T08:17:03.606Z,1013.12
2023-02-02T08:17:44.268Z,1013.11
2023-02-02T08:18:25.866Z,1013.1
2023-02-02T08:19:07.220Z,1013.2
2023-02-02T08:19:47.900Z,1013.14
2023-02-02T08:20:28.415Z,1013.19
2023-02-02T08:21:08.969Z,1013.22
2023-02-02T08:21:49.913Z,1013.22
2023-02-02T08:22:31.189Z,1013.28
2023-02-02T08:23:11.976Z,1013.3
2023-02-02T08:25:17.768Z,1013.33
2023-02-02T08:25:59.250Z,1013.32
2023-02-02T08:26:42.805Z,1013.33
2023-02-02T08:27:23.310Z,1013.37
2023-02-02T08:28:03.859Z,1013.12
2023-02-02T08:28:44.815Z,1013.31
2023-02-02T08:29:25.356Z,1013.28
2023-02-02T08:30:05.855Z,1013.2
2023-02-02T08:32:07.307Z,1013.3
2023-02-02T08:32:47.860Z,1013.44
2023-02-02T08:33:28.507Z,1013.38
2023-02-02T08:34:09.090Z,1013.42
2023-02-02T08:34:49.664Z,1013.41
2023-02-02T08:35:30.201Z,1013.52
2023-02-02T08:36:11.636Z,1013.21
2023-02-02T08:36:52.479Z,1013.55
2023-02-02T08:37:32.965Z,1013.53
2023-02-02T08:38:13.778Z,1013.45
2023-02-02T08:38:54.707Z,1013.6
2023-02-02T08:39:35.324Z,1013.36
2023-02-02T08:40:16.089Z,1013.56
2023-02-02T08:40:56.631Z,1013.54
2023-02-02T08:41:37.195Z,1013.53
2023-02-02T08:43:50.050Z,1013.57
2023-02-02T08:44:44.160Z,1013.45
2023-02-02T08:46:00.578Z,1013.54
2023-02-02T08:46:00.639Z,1013.51
2023-02-02T08:46:34.694Z,1013.54
2023-02-02T08:47:15.203Z,1013.57
2023-02-02T08:48:10.665Z,1013.6
2023-02-02T08:48:36.979Z,1013.48
2023-02-02T08:49:17.668Z,1013.51
2023-02-02T08:49:58.154Z,1013.65
2023-02-02T08:50:40.441Z,1013.37
2023-02-02T08:51:20.605Z,1013.3
2023-02-02T08:54:34.787Z,1013.56
2023-02-02T08:55:15.441Z,1013.53
2023-02-02T08:55:55.841Z,1013.66
2023-02-02T08:56:36.411Z,1013.53
2023-02-02T08:57:16.866Z,1013.66
2023-02-02T08:57:57.409Z,1013.49
2023-02-02T08:58:38.002Z,1013.71
2023-02-02T08:59:18.634Z,1013.77
2023-02-02T08:59:59.161Z,1013.7
2023-02-02T09:00:39.725Z,1013.79
2023-02-02T09:01:20.375Z,1013.61
2023-02-02T09:02:01.743Z,1013.77
2023-02-02T09:02:42.274Z,1013.49
2023-02-02T09:03:22.840Z,1013.76
2023-02-02T09:04:03.395Z,1013.75
2023-02-02T09:04:43.958Z,1013.74
2023-02-02T09:05:24.721Z,1013.76
2023-02-02T09:06:04.960Z,1013.72
2023-02-02T09:07:26.047Z,1013.67
2023-02-02T09:08:06.561Z,1013.67
2023-02-02T09:08:47.172Z,1013.59
2023-02-02T09:09:27.727Z,1013.73
2023-02-02T09:10:08.374Z,1013.74
2023-02-02T09:10:48.888Z,1013.63
2023-02-02T09:11:29.477Z,1013.7
2023-02-02T09:14:24.948Z,1013.82
2023-02-02T09:15:05.712Z,1013.77
2023-02-02T09:15:46.820Z,1013.77
2023-02-02T09:16:27.604Z,1013.78
2023-02-02T09:17:08.360Z,1013.81
2023-02-02T09:17:48.974Z,1013.73
2023-02-02T09:18:29.384Z,1013.74
2023-02-02T09:19:10.914Z,1013.7
2023-02-02T09:19:51.523Z,1013.7
2023-02-02T09:20:32.026Z,1013.79
2023-02-02T09:21:12.606Z,1013.74
2023-02-02T09:21:53.053Z,1013.83
2023-02-02T09:22:33.712Z,1013.82
2023-02-02T09:23:14.981Z,1013.86
2023-02-02T09:23:58.221Z,1013.96
2023-02-02T09:25:00.360Z,1013.94
2023-02-02T09:27:58.167Z,1013.99
2023-02-02T09:28:39.352Z,1014.03
2023-02-02T09:29:19.428Z,1013.99
2023-02-02T09:30:00.036Z,1013.95
2023-02-02T09:30:40.527Z,1013.9
2023-02-02T09:31:21.157Z,1014.09
2023-02-02T09:32:01.687Z,1014.1
2023-02-02T09:33:22.805Z,1014.15
2023-02-02T09:34:03.370Z,1014.15
2023-02-02T09:34:43.874Z,1014.01
2023-02-02T09:35:24.747Z,1014.12
2023-02-02T09:36:05.175Z,1014.1
2023-02-02T09:36:46.445Z,1014.14
2023-02-02T09:37:26.984Z,1014.19
2023-02-02T09:38:07.598Z,1014.19
2023-02-02T09:38:48.904Z,1014.23
2023-02-02T09:39:29.517Z,1014.27
2023-02-02T09:40:09.969Z,1014.16
2023-02-02T09:40:50.527Z,1014.3
2023-02-02T09:41:31.086Z,1014.23
2023-02-02T09:42:11.704Z,1014.29
2023-02-02T09:42:52.277Z,1014.1
2023-02-02T09:43:32.835Z,1014.2
2023-02-02T09:44:13.909Z,1014.24
2023-02-02T09:44:54.531Z,1014.26
2023-02-02T09:46:15.733Z,1014.19
2023-02-02T09:46:56.237Z,1014.29
2023-02-02T09:47:36.808Z,1014.3
2023-02-02T09:48:17.816Z,1014.18
2023-02-02T09:48:58.436Z,1014.39
2023-02-02T09:49:39.064Z,1014.21
2023-02-02T09:50:19.692Z,1014.27
2023-02-02T09:51:40.947Z,1014.35
2023-02-02T09:52:22.636Z,1014.34
2023-02-02T09:53:02.461Z,1014.35
2023-02-02T09:53:54.545Z,1014.39
2023-02-02T09:54:23.663Z,1014.35
2023-02-02T09:55:04.935Z,1014.24
2023-02-02T09:55:45.461Z,1014.33